sensor_id;sensor_type;location;lat;lon;timestamp;temperature;humidity
7576;DHT22;3829;50.798;4.358;2024-03-23T00:54:34;8.10;99.90
7576;DHT22;3829;50.798;4.358;2024-03-23T00:56:59;8.00;99.90
7576;DHT22;3829;50.798;4.358;2024-03-23T00:59:25;8.00;99.90
7576;DHT22;3829;50.798;4.358;2024-03-23T01:01:54;8.00;99.90
7576;DHT22;3829;50.798;4.358;2024-03-23T01:04:19;8.10;99.90
7576;DHT22;3829;50.798;4.358;2024-03-23T01:06:45;8.10;99.90
7576;DHT22;3829;50.798;4.358;2024-03-23T01:09:10;8.00;99.90
7576;DHT22;3829;50.798;4.358;2024-03-23T01:11:37;8.10;99.90
7576;DHT22;3829;50.798;4.358;2024-03-23T01:14:02;8.00;99.90
7576;DHT22;3829;50.798;4.358;2024-03-23T01:16:28;7.90;99.90
7576;DHT22;3829;50.798;4.358;2024-03-23T01:18:53;7.80;99.90
7576;DHT22;3829;50.798;4.358;2024-03-23T01:21:19;7.60;99.90
7576;DHT22;3829;50.798;4.358;2024-03-23T01:23:44;7.60;99.90
7576;DHT22;3829;50.798;4.358;2024-03-23T01:26:10;7.60;99.90
7576;DHT22;3829;50.798;4.358;2024-03-23T01:28:35;7.70;99.90
7576;DHT22;3829;50.798;4.358;2024-03-23T01:31:02;7.70;99.90
7576;DHT22;3829;50.798;4.358;2024-03-23T01:33:27;7.70;99.90
7576;DHT22;3829;50.798;4.358;2024-03-23T01:35:53;7.50;99.90
7576;DHT22;3829;50.798;4.358;2024-03-23T01:38:18;7.60;99.90
7576;DHT22;3829;50.798;4.358;2024-03-23T01:40:44;7.50;99.90
7576;DHT22;3829;50.798;4.358;2024-03-23T01:43:09;7.40;99.90
7576;DHT22;3829;50.798;4.358;2024-03-23T01:45:35;7.50;99.90
7576;DHT22;3829;50.798;4.358;2024-03-23T01:48:01;7.50;99.90
7576;DHT22;3829;50.798;4.358;2024-03-23T01:50:28;7.60;99.90
7576;DHT22;3829;50.798;4.358;2024-03-23T01:52:54;7.60;99.90
7576;DHT22;3829;50.798;4.358;2024-03-23T01:55:20;7.60;99.90
7576;DHT22;3829;50.798;4.358;2024-03-23T01:57:46;7.60;99.90
7576;DHT22;3829;50.798;4.358;2024-03-23T02:00:12;7.70;99.90
7576;DHT22;3829;50.798;4.358;2024-03-23T02:02:42;7.80;99.90
7576;DHT22;3829;50.798;4.358;2024-03-23T02:05:08;7.90;99.90
7576;DHT22;3829;50.798;4.358;2024-03-23T02:07:34;7.90;99.90
7576;DHT22;3829;50.798;4.358;2024-03-23T02:10:00;8.00;99.90
7576;DHT22;3829;50.798;4.358;2024-03-23T02:12:26;8.00;99.90
7576;DHT22;3829;50.798;4.358;2024-03-23T02:14:51;7.90;99.90
7576;DHT22;3829;50.798;4.358;2024-03-23T02:17:17;8.00;99.90
7576;DHT22;3829;50.798;4.358;2024-03-23T02:19:42;7.90;99.90
7576;DHT22;3829;50.798;4.358;2024-03-23T02:22:08;8.00;99.90
7576;DHT22;3829;50.798;4.358;2024-03-23T02:24:36;7.90;99.90
7576;DHT22;3829;50.798;4.358;2024-03-23T02:27:02;7.90;99.90
7576;DHT22;3829;50.798;4.358;2024-03-23T02:29:28;7.80;99.90
7576;DHT22;3829;50.798;4.358;2024-03-23T02:31:53;8.00;99.90
7576;DHT22;3829;50.798;4.358;2024-03-23T02:34:19;8.00;99.90
7576;DHT22;3829;50.798;4.358;2024-03-23T02:36:44;8.00;99.90
7576;DHT22;3829;50.798;4.358;2024-03-23T02:39:10;8.00;99.90
7576;DHT22;3829;50.798;4.358;2024-03-23T02:41:36;7.80;99.90
7576;DHT22;3829;50.798;4.358;2024-03-23T02:44:02;7.90;99.90
7576;DHT22;3829;50.798;4.358;2024-03-23T02:46:27;8.00;99.90
7576;DHT22;3829;50.798;4.358;2024-03-23T02:48:53;8.00;99.90
7576;DHT22;3829;50.798;4.358;2024-03-23T02:51:18;8.10;99.90
7576;DHT22;3829;50.798;4.358;2024-03-23T02:53:44;8.00;99.90
7576;DHT22;3829;50.798;4.358;2024-03-23T02:56:09;8.00;99.90
7576;DHT22;3829;50.798;4.358;2024-03-23T02:58:41;8.00;99.90
7576;DHT22;3829;50.798;4.358;2024-03-23T03:01:08;8.00;99.90
7576;DHT22;3829;50.798;4.358;2024-03-23T03:03:33;8.00;99.90
7576;DHT22;3829;50.798;4.358;2024-03-23T03:05:59;8.10;99.90
7576;DHT22;3829;50.798;4.358;2024-03-23T03:08:24;8.10;99.90
7576;DHT22;3829;50.798;4.358;2024-03-23T03:10:50;8.10;99.90
7576;DHT22;3829;50.798;4.358;2024-03-23T03:13:15;8.10;99.90
7576;DHT22;3829;50.798;4.358;2024-03-23T03:15:43;8.10;99.90
7576;DHT22;3829;50.798;4.358;2024-03-23T03:18:08;8.00;99.90
7576;DHT22;3829;50.798;4.358;2024-03-23T03:20:38;8.00;99.90
7576;DHT22;3829;50.798;4.358;2024-03-23T03:23:04;8.00;99.90
7576;DHT22;3829;50.798;4.358;2024-03-23T03:25:30;8.00;99.90
7576;DHT22;3829;50.798;4.358;2024-03-23T03:27:55;7.90;99.90
7576;DHT22;3829;50.798;4.358;2024-03-23T03:30:21;7.90;99.90
7576;DHT22;3829;50.798;4.358;2024-03-23T03:32:46;7.80;99.90
7576;DHT22;3829;50.798;4.358;2024-03-23T03:35:12;7.70;99.90
7576;DHT22;3829;50.798;4.358;2024-03-23T03:37:38;7.70;99.90
7576;DHT22;3829;50.798;4.358;2024-03-23T03:40:03;7.70;99.90
7576;DHT22;3829;50.798;4.358;2024-03-23T03:42:29;7.70;99.90
7576;DHT22;3829;50.798;4.358;2024-03-23T03:44:54;7.70;99.90
7576;DHT22;3829;50.798;4.358;2024-03-23T03:47:20;7.70;99.90
7576;DHT22;3829;50.798;4.358;2024-03-23T03:49:47;7.70;99.90
7576;DHT22;3829;50.798;4.358;2024-03-23T03:52:12;7.50;99.90
7576;DHT22;3829;50.798;4.358;2024-03-23T03:54:37;7.40;99.90
7576;DHT22;3829;50.798;4.358;2024-03-23T03:57:03;7.30;99.90
7576;DHT22;3829;50.798;4.358;2024-03-23T03:59:29;7.30;99.90
7576;DHT22;3829;50.798;4.358;2024-03-23T04:01:54;7.30;99.90
7576;DHT22;3829;50.798;4.358;2024-03-23T04:04:20;7.30;99.90
7576;DHT22;3829;50.798;4.358;2024-03-23T04:06:47;7.30;99.90
7576;DHT22;3829;50.798;4.358;2024-03-23T04:09:13;7.50;99.90
7576;DHT22;3829;50.798;4.358;2024-03-23T04:11:38;7.40;99.90
7576;DHT22;3829;50.798;4.358;2024-03-23T04:14:04;7.40;99.90
7576;DHT22;3829;50.798;4.358;2024-03-23T04:16:34;7.50;99.90
7576;DHT22;3829;50.798;4.358;2024-03-23T04:19:00;7.40;99.90
7576;DHT22;3829;50.798;4.358;2024-03-23T04:21:25;7.40;99.90
7576;DHT22;3829;50.798;4.358;2024-03-23T04:23:51;7.40;99.90
7576;DHT22;3829;50.798;4.358;2024-03-23T04:26:17;7.50;99.90
7576;DHT22;3829;50.798;4.358;2024-03-23T04:28:42;7.50;99.90
7576;DHT22;3829;50.798;4.358;2024-03-23T04:31:08;7.40;99.90
7576;DHT22;3829;50.798;4.358;2024-03-23T04:33:34;7.40;99.90
7576;DHT22;3829;50.798;4.358;2024-03-23T04:35:59;7.40;99.90
7576;DHT22;3829;50.798;4.358;2024-03-23T04:38:25;7.40;99.90
7576;DHT22;3829;50.798;4.358;2024-03-23T04:40:58;7.60;99.90
7576;DHT22;3829;50.798;4.358;2024-03-23T04:43:24;7.70;99.90
7576;DHT22;3829;50.798;4.358;2024-03-23T04:45:49;7.70;99.90
7576;DHT22;3829;50.798;4.358;2024-03-23T04:48:15;7.70;99.90
7576;DHT22;3829;50.798;4.358;2024-03-23T04:50:41;7.60;99.90
7576;DHT22;3829;50.798;4.358;2024-03-23T04:53:07;7.60;99.90
7576;DHT22;3829;50.798;4.358;2024-03-23T04:55:32;7.40;99.90
7576;DHT22;3829;50.798;4.358;2024-03-23T04:57:58;7.20;99.90
7576;DHT22;3829;50.798;4.358;2024-03-23T05:00:24;7.00;99.90
7576;DHT22;3829;50.798;4.358;2024-03-23T05:02:50;6.90;99.90
7576;DHT22;3829;50.798;4.358;2024-03-23T05:05:16;6.70;99.90
7576;DHT22;3829;50.798;4.358;2024-03-23T05:07:41;6.70;99.90
7576;DHT22;3829;50.798;4.358;2024-03-23T05:10:09;6.80;99.90
7576;DHT22;3829;50.798;4.358;2024-03-23T05:12:37;6.70;99.90
7576;DHT22;3829;50.798;4.358;2024-03-23T05:15:04;6.70;99.90
7576;DHT22;3829;50.798;4.358;2024-03-23T05:17:31;6.70;99.90
7576;DHT22;3829;50.798;4.358;2024-03-23T05:19:57;6.70;99.90
7576;DHT22;3829;50.798;4.358;2024-03-23T05:22:23;6.70;99.90
7576;DHT22;3829;50.798;4.358;2024-03-23T05:24:48;6.80;99.90
7576;DHT22;3829;50.798;4.358;2024-03-23T05:27:14;6.70;99.90
7576;DHT22;3829;50.798;4.358;2024-03-23T05:29:40;6.80;99.90
7576;DHT22;3829;50.798;4.358;2024-03-23T05:32:06;6.70;99.90
7576;DHT22;3829;50.798;4.358;2024-03-23T05:34:31;6.70;99.90
7576;DHT22;3829;50.798;4.358;2024-03-23T05:36:57;6.80;99.90
7576;DHT22;3829;50.798;4.358;2024-03-23T05:39:22;6.80;99.90
7576;DHT22;3829;50.798;4.358;2024-03-23T05:41:49;6.80;99.90
7576;DHT22;3829;50.798;4.358;2024-03-23T05:44:14;6.70;99.90
7576;DHT22;3829;50.798;4.358;2024-03-23T05:46:40;6.70;99.90
7576;DHT22;3829;50.798;4.358;2024-03-23T05:49:06;6.80;99.90
7576;DHT22;3829;50.798;4.358;2024-03-23T05:51:32;6.80;99.90
7576;DHT22;3829;50.798;4.358;2024-03-23T05:53:57;6.80;99.90
7576;DHT22;3829;50.798;4.358;2024-03-23T05:56:23;6.70;99.90
7576;DHT22;3829;50.798;4.358;2024-03-23T05:58:48;6.60;99.90
7576;DHT22;3829;50.798;4.358;2024-03-23T06:01:14;6.60;99.90
7576;DHT22;3829;50.798;4.358;2024-03-23T06:03:39;6.50;99.90
7576;DHT22;3829;50.798;4.358;2024-03-23T06:06:05;6.60;99.90
7576;DHT22;3829;50.798;4.358;2024-03-23T06:08:35;6.60;99.90
7576;DHT22;3829;50.798;4.358;2024-03-23T06:11:01;6.70;99.90
7576;DHT22;3829;50.798;4.358;2024-03-23T06:13:27;6.80;99.90
7576;DHT22;3829;50.798;4.358;2024-03-23T06:15:55;6.90;99.90
7576;DHT22;3829;50.798;4.358;2024-03-23T06:18:21;6.90;99.90
7576;DHT22;3829;50.798;4.358;2024-03-23T06:20:46;6.90;99.90
7576;DHT22;3829;50.798;4.358;2024-03-23T06:23:12;6.90;99.90
7576;DHT22;3829;50.798;4.358;2024-03-23T06:25:38;6.90;99.90
7576;DHT22;3829;50.798;4.358;2024-03-23T06:28:04;6.90;99.90
7576;DHT22;3829;50.798;4.358;2024-03-23T06:30:30;7.00;99.90
7576;DHT22;3829;50.798;4.358;2024-03-23T06:32:57;7.00;99.90
7576;DHT22;3829;50.798;4.358;2024-03-23T06:35:22;6.80;99.90
7576;DHT22;3829;50.798;4.358;2024-03-23T06:37:48;6.80;99.90
7576;DHT22;3829;50.798;4.358;2024-03-23T06:40:13;6.80;99.90
7576;DHT22;3829;50.798;4.358;2024-03-23T06:42:39;6.80;99.90
7576;DHT22;3829;50.798;4.358;2024-03-23T06:45:05;7.00;99.90
7576;DHT22;3829;50.798;4.358;2024-03-23T06:47:31;7.00;99.90
7576;DHT22;3829;50.798;4.358;2024-03-23T06:49:58;6.90;99.90
7576;DHT22;3829;50.798;4.358;2024-03-23T06:52:24;6.80;99.90
7576;DHT22;3829;50.798;4.358;2024-03-23T06:54:49;6.80;99.90
7576;DHT22;3829;50.798;4.358;2024-03-23T06:57:15;6.70;99.90
7576;DHT22;3829;50.798;4.358;2024-03-23T06:59:40;6.80;99.90
7576;DHT22;3829;50.798;4.358;2024-03-23T07:02:06;6.80;99.90
7576;DHT22;3829;50.798;4.358;2024-03-23T07:04:34;6.80;99.90
7576;DHT22;3829;50.798;4.358;2024-03-23T07:07:00;7.00;99.90
7576;DHT22;3829;50.798;4.358;2024-03-23T07:09:28;7.30;99.90
7576;DHT22;3829;50.798;4.358;2024-03-23T07:11:57;7.20;99.90
7576;DHT22;3829;50.798;4.358;2024-03-23T07:14:23;7.00;99.90
7576;DHT22;3829;50.798;4.358;2024-03-23T07:16:50;6.90;99.90
7576;DHT22;3829;50.798;4.358;2024-03-23T07:19:16;6.90;99.90
7576;DHT22;3829;50.798;4.358;2024-03-23T07:21:43;6.80;99.90
7576;DHT22;3829;50.798;4.358;2024-03-23T07:24:09;6.80;99.90
7576;DHT22;3829;50.798;4.358;2024-03-23T07:26:34;6.80;99.90
7576;DHT22;3829;50.798;4.358;2024-03-23T07:29:00;6.80;99.90
7576;DHT22;3829;50.798;4.358;2024-03-23T07:31:25;6.80;99.90
7576;DHT22;3829;50.798;4.358;2024-03-23T07:33:51;6.80;99.90
7576;DHT22;3829;50.798;4.358;2024-03-23T07:36:16;6.90;99.90
7576;DHT22;3829;50.798;4.358;2024-03-23T07:38:43;7.00;99.90
7576;DHT22;3829;50.798;4.358;2024-03-23T07:41:11;7.20;99.90
7576;DHT22;3829;50.798;4.358;2024-03-23T07:43:38;7.40;99.90
7576;DHT22;3829;50.798;4.358;2024-03-23T07:46:04;7.50;99.90
7576;DHT22;3829;50.798;4.358;2024-03-23T07:48:30;7.50;99.90
7576;DHT22;3829;50.798;4.358;2024-03-23T07:50:59;7.50;99.90
7576;DHT22;3829;50.798;4.358;2024-03-23T07:53:26;7.60;99.90
7576;DHT22;3829;50.798;4.358;2024-03-23T07:55:55;7.80;99.90
7576;DHT22;3829;50.798;4.358;2024-03-23T07:58:20;8.00;99.90
7576;DHT22;3829;50.798;4.358;2024-03-23T08:00:46;7.90;99.90
7576;DHT22;3829;50.798;4.358;2024-03-23T08:03:11;7.80;99.90
7576;DHT22;3829;50.798;4.358;2024-03-23T08:05:37;7.90;99.90
7576;DHT22;3829;50.798;4.358;2024-03-23T08:08:03;8.00;99.90
7576;DHT22;3829;50.798;4.358;2024-03-23T08:10:28;8.00;99.90
7576;DHT22;3829;50.798;4.358;2024-03-23T08:12:54;8.20;99.90
7576;DHT22;3829;50.798;4.358;2024-03-23T08:15:19;8.40;99.90
7576;DHT22;3829;50.798;4.358;2024-03-23T08:17:45;8.20;99.90
7576;DHT22;3829;50.798;4.358;2024-03-23T08:20:10;8.20;99.90
7576;DHT22;3829;50.798;4.358;2024-03-23T08:22:36;8.10;99.90
7576;DHT22;3829;50.798;4.358;2024-03-23T08:25:02;8.00;99.90
7576;DHT22;3829;50.798;4.358;2024-03-23T08:27:27;7.90;99.90
7576;DHT22;3829;50.798;4.358;2024-03-23T08:29:53;7.90;99.90
7576;DHT22;3829;50.798;4.358;2024-03-23T08:32:18;8.00;99.90
7576;DHT22;3829;50.798;4.358;2024-03-23T08:34:44;8.20;99.90
7576;DHT22;3829;50.798;4.358;2024-03-23T08:37:10;8.20;99.90
7576;DHT22;3829;50.798;4.358;2024-03-23T08:39:35;8.00;99.90
7576;DHT22;3829;50.798;4.358;2024-03-23T08:42:01;8.00;99.90
7576;DHT22;3829;50.798;4.358;2024-03-23T08:44:27;7.80;99.90
7576;DHT22;3829;50.798;4.358;2024-03-23T08:46:55;8.00;99.90
7576;DHT22;3829;50.798;4.358;2024-03-23T08:49:21;8.20;99.90
7576;DHT22;3829;50.798;4.358;2024-03-23T08:51:47;8.30;99.90
7576;DHT22;3829;50.798;4.358;2024-03-23T08:54:12;8.40;99.90
7576;DHT22;3829;50.798;4.358;2024-03-23T08:56:38;8.40;99.90
7576;DHT22;3829;50.798;4.358;2024-03-23T08:59:03;8.30;99.90
7576;DHT22;3829;50.798;4.358;2024-03-23T09:01:29;8.20;99.90
7576;DHT22;3829;50.798;4.358;2024-03-23T09:03:54;8.40;99.90
7576;DHT22;3829;50.798;4.358;2024-03-23T09:06:21;8.20;99.90
7576;DHT22;3829;50.798;4.358;2024-03-23T09:08:46;8.20;99.90
7576;DHT22;3829;50.798;4.358;2024-03-23T09:11:12;8.40;99.90
7576;DHT22;3829;50.798;4.358;2024-03-23T09:13:38;8.60;99.90
7576;DHT22;3829;50.798;4.358;2024-03-23T09:16:05;8.80;99.90
7576;DHT22;3829;50.798;4.358;2024-03-23T09:18:33;8.70;99.90
7576;DHT22;3829;50.798;4.358;2024-03-23T09:20:59;8.50;99.90
7576;DHT22;3829;50.798;4.358;2024-03-23T09:23:24;8.40;99.90
7576;DHT22;3829;50.798;4.358;2024-03-23T09:25:50;8.40;99.90
7576;DHT22;3829;50.798;4.358;2024-03-23T09:28:15;8.40;99.90
7576;DHT22;3829;50.798;4.358;2024-03-23T09:30:41;8.40;99.90
7576;DHT22;3829;50.798;4.358;2024-03-23T09:33:09;8.40;99.90
7576;DHT22;3829;50.798;4.358;2024-03-23T09:35:39;8.70;99.90
7576;DHT22;3829;50.798;4.358;2024-03-23T09:38:05;8.60;99.90
7576;DHT22;3829;50.798;4.358;2024-03-23T09:40:33;8.60;99.90
7576;DHT22;3829;50.798;4.358;2024-03-23T09:42:58;8.30;99.90
7576;DHT22;3829;50.798;4.358;2024-03-23T09:45:28;8.00;99.90
7576;DHT22;3829;50.798;4.358;2024-03-23T09:47:55;7.80;99.90
7576;DHT22;3829;50.798;4.358;2024-03-23T09:50:21;7.70;99.90
7576;DHT22;3829;50.798;4.358;2024-03-23T09:52:47;7.60;99.90
7576;DHT22;3829;50.798;4.358;2024-03-23T09:55:13;7.70;99.90
7576;DHT22;3829;50.798;4.358;2024-03-23T09:57:40;8.20;99.90
7576;DHT22;3829;50.798;4.358;2024-03-23T10:00:06;8.60;99.90
7576;DHT22;3829;50.798;4.358;2024-03-23T10:02:33;8.90;99.90
7576;DHT22;3829;50.798;4.358;2024-03-23T10:04:59;8.90;99.90
7576;DHT22;3829;50.798;4.358;2024-03-23T10:07:26;8.60;99.90
7576;DHT22;3829;50.798;4.358;2024-03-23T10:09:53;8.50;99.90
7576;DHT22;3829;50.798;4.358;2024-03-23T10:12:20;8.80;99.90
7576;DHT22;3829;50.798;4.358;2024-03-23T10:14:46;8.80;99.90
7576;DHT22;3829;50.798;4.358;2024-03-23T10:17:18;8.70;99.90
7576;DHT22;3829;50.798;4.358;2024-03-23T10:19:46;8.60;99.90
7576;DHT22;3829;50.798;4.358;2024-03-23T10:22:17;8.70;99.90
7576;DHT22;3829;50.798;4.358;2024-03-23T10:24:43;8.60;99.90
7576;DHT22;3829;50.798;4.358;2024-03-23T10:27:08;8.60;99.90
7576;DHT22;3829;50.798;4.358;2024-03-23T10:29:34;8.70;99.90
7576;DHT22;3829;50.798;4.358;2024-03-23T10:32:10;8.70;99.90
7576;DHT22;3829;50.798;4.358;2024-03-23T10:34:36;8.50;99.90
7576;DHT22;3829;50.798;4.358;2024-03-23T10:37:03;8.40;99.90
7576;DHT22;3829;50.798;4.358;2024-03-23T10:39:39;8.40;99.90
7576;DHT22;3829;50.798;4.358;2024-03-23T10:42:06;8.30;99.90
7576;DHT22;3829;50.798;4.358;2024-03-23T10:44:33;8.30;99.90
7576;DHT22;3829;50.798;4.358;2024-03-23T10:46:59;8.50;99.90
7576;DHT22;3829;50.798;4.358;2024-03-23T10:49:27;8.80;99.90
7576;DHT22;3829;50.798;4.358;2024-03-23T10:51:56;8.90;99.90
7576;DHT22;3829;50.798;4.358;2024-03-23T10:54:22;9.10;99.90
7576;DHT22;3829;50.798;4.358;2024-03-23T10:56:53;9.40;99.90
7576;DHT22;3829;50.798;4.358;2024-03-23T10:59:21;9.70;99.90
7576;DHT22;3829;50.798;4.358;2024-03-23T11:01:58;10.00;99.90
7576;DHT22;3829;50.798;4.358;2024-03-23T11:04:34;9.90;99.90
7576;DHT22;3829;50.798;4.358;2024-03-23T11:07:01;9.80;99.90
7576;DHT22;3829;50.798;4.358;2024-03-23T11:09:38;9.80;99.90
7576;DHT22;3829;50.798;4.358;2024-03-23T11:12:25;9.60;99.90
7576;DHT22;3829;50.798;4.358;2024-03-23T11:17:30;10.00;99.90
7576;DHT22;3829;50.798;4.358;2024-03-23T11:19:59;10.00;99.90
7576;DHT22;3829;50.798;4.358;2024-03-23T11:22:39;9.90;99.90
7576;DHT22;3829;50.798;4.358;2024-03-23T11:25:16;9.70;99.90
7576;DHT22;3829;50.798;4.358;2024-03-23T11:27:43;9.50;99.90
7576;DHT22;3829;50.798;4.358;2024-03-23T11:30:12;9.30;99.90
7576;DHT22;3829;50.798;4.358;2024-03-23T11:32:37;9.40;99.90
7576;DHT22;3829;50.798;4.358;2024-03-23T11:35:03;9.20;99.90
7576;DHT22;3829;50.798;4.358;2024-03-23T11:37:28;9.10;99.90
7576;DHT22;3829;50.798;4.358;2024-03-23T11:39:54;8.90;99.90
7576;DHT22;3829;50.798;4.358;2024-03-23T11:42:19;8.80;99.90
7576;DHT22;3829;50.798;4.358;2024-03-23T11:44:47;8.60;99.90
7576;DHT22;3829;50.798;4.358;2024-03-23T11:47:12;8.40;99.90
7576;DHT22;3829;50.798;4.358;2024-03-23T11:49:38;8.30;99.90
7576;DHT22;3829;50.798;4.358;2024-03-23T11:52:06;8.40;99.90
7576;DHT22;3829;50.798;4.358;2024-03-23T11:54:33;8.40;99.90
7576;DHT22;3829;50.798;4.358;2024-03-23T11:57:01;8.60;99.90
7576;DHT22;3829;50.798;4.358;2024-03-23T11:59:34;8.70;99.90
7576;DHT22;3829;50.798;4.358;2024-03-23T12:02:00;8.60;99.90
7576;DHT22;3829;50.798;4.358;2024-03-23T12:04:27;8.40;99.90
7576;DHT22;3829;50.798;4.358;2024-03-23T12:07:13;8.10;99.90
7576;DHT22;3829;50.798;4.358;2024-03-23T12:09:40;7.90;99.90
7576;DHT22;3829;50.798;4.358;2024-03-23T12:12:10;8.00;99.90
7576;DHT22;3829;50.798;4.358;2024-03-23T12:14:36;8.20;99.90
7576;DHT22;3829;50.798;4.358;2024-03-23T12:17:11;8.70;99.90
7576;DHT22;3829;50.798;4.358;2024-03-23T12:19:37;9.30;99.90
7576;DHT22;3829;50.798;4.358;2024-03-23T12:22:05;9.60;99.90
7576;DHT22;3829;50.798;4.358;2024-03-23T12:24:31;9.40;99.90
7576;DHT22;3829;50.798;4.358;2024-03-23T12:27:03;9.20;99.90
7576;DHT22;3829;50.798;4.358;2024-03-23T12:29:30;9.00;99.90
7576;DHT22;3829;50.798;4.358;2024-03-23T12:32:00;8.90;99.90
7576;DHT22;3829;50.798;4.358;2024-03-23T12:34:27;8.60;99.90
7576;DHT22;3829;50.798;4.358;2024-03-23T12:36:53;8.50;99.90
7576;DHT22;3829;50.798;4.358;2024-03-23T12:39:18;8.30;99.90
7576;DHT22;3829;50.798;4.358;2024-03-23T12:41:46;8.30;99.90
7576;DHT22;3829;50.798;4.358;2024-03-23T12:44:11;8.40;99.90
7576;DHT22;3829;50.798;4.358;2024-03-23T12:46:37;8.60;99.90
7576;DHT22;3829;50.798;4.358;2024-03-23T12:49:03;8.80;99.90
7576;DHT22;3829;50.798;4.358;2024-03-23T12:51:29;8.80;99.90
7576;DHT22;3829;50.798;4.358;2024-03-23T12:53:54;9.10;99.90
7576;DHT22;3829;50.798;4.358;2024-03-23T12:56:20;9.40;99.90
7576;DHT22;3829;50.798;4.358;2024-03-23T12:58:45;9.70;99.90
7576;DHT22;3829;50.798;4.358;2024-03-23T13:01:17;9.60;99.90
7576;DHT22;3829;50.798;4.358;2024-03-23T13:03:43;9.50;99.90
7576;DHT22;3829;50.798;4.358;2024-03-23T13:06:11;9.40;99.90
7576;DHT22;3829;50.798;4.358;2024-03-23T13:08:36;9.50;99.90
7576;DHT22;3829;50.798;4.358;2024-03-23T13:11:02;9.70;99.90
7576;DHT22;3829;50.798;4.358;2024-03-23T13:13:28;9.90;99.90
7576;DHT22;3829;50.798;4.358;2024-03-23T13:15:54;10.20;99.90
7576;DHT22;3829;50.798;4.358;2024-03-23T13:18:19;10.30;99.90
7576;DHT22;3829;50.798;4.358;2024-03-23T13:20:45;10.30;99.90
7576;DHT22;3829;50.798;4.358;2024-03-23T13:23:10;10.30;99.90
7576;DHT22;3829;50.798;4.358;2024-03-23T13:25:36;10.40;99.90
7576;DHT22;3829;50.798;4.358;2024-03-23T13:28:02;10.80;99.90
7576;DHT22;3829;50.798;4.358;2024-03-23T13:30:29;11.10;99.90
7576;DHT22;3829;50.798;4.358;2024-03-23T13:32:54;10.80;99.90
7576;DHT22;3829;50.798;4.358;2024-03-23T13:35:21;10.80;99.90
7576;DHT22;3829;50.798;4.358;2024-03-23T13:37:46;10.80;99.90
7576;DHT22;3829;50.798;4.358;2024-03-23T13:40:12;10.60;99.90
7576;DHT22;3829;50.798;4.358;2024-03-23T13:42:37;10.50;99.90
7576;DHT22;3829;50.798;4.358;2024-03-23T13:45:03;10.50;99.90
7576;DHT22;3829;50.798;4.358;2024-03-23T13:47:29;10.30;99.90
7576;DHT22;3829;50.798;4.358;2024-03-23T13:49:55;10.20;99.90
7576;DHT22;3829;50.798;4.358;2024-03-23T13:52:21;10.40;99.90
7576;DHT22;3829;50.798;4.358;2024-03-23T13:54:48;10.30;99.90
7576;DHT22;3829;50.798;4.358;2024-03-23T13:57:14;10.50;99.90
7576;DHT22;3829;50.798;4.358;2024-03-23T13:59:39;10.30;99.90
7576;DHT22;3829;50.798;4.358;2024-03-23T14:02:05;10.20;99.90
7576;DHT22;3829;50.798;4.358;2024-03-23T14:04:31;10.10;99.90
7576;DHT22;3829;50.798;4.358;2024-03-23T14:06:56;10.30;99.90
7576;DHT22;3829;50.798;4.358;2024-03-23T14:09:23;10.60;99.90
7576;DHT22;3829;50.798;4.358;2024-03-23T14:11:51;10.60;99.90
7576;DHT22;3829;50.798;4.358;2024-03-23T14:14:17;10.70;99.90
7576;DHT22;3829;50.798;4.358;2024-03-23T14:16:43;11.20;99.90
7576;DHT22;3829;50.798;4.358;2024-03-23T14:19:08;11.60;99.90
7576;DHT22;3829;50.798;4.358;2024-03-23T14:21:34;11.60;99.90
7576;DHT22;3829;50.798;4.358;2024-03-23T14:24:00;11.80;99.90
7576;DHT22;3829;50.798;4.358;2024-03-23T14:26:26;11.70;99.90
7576;DHT22;3829;50.798;4.358;2024-03-23T14:28:52;12.40;99.90
7576;DHT22;3829;50.798;4.358;2024-03-23T14:31:18;12.10;99.90
7576;DHT22;3829;50.798;4.358;2024-03-23T14:33:44;11.90;99.90
7576;DHT22;3829;50.798;4.358;2024-03-23T14:36:14;12.10;99.90
7576;DHT22;3829;50.798;4.358;2024-03-23T14:38:39;11.70;99.90
7576;DHT22;3829;50.798;4.358;2024-03-23T14:41:05;11.80;99.90
7576;DHT22;3829;50.798;4.358;2024-03-23T14:43:31;11.80;99.90
7576;DHT22;3829;50.798;4.358;2024-03-23T14:46:14;12.20;99.90
7576;DHT22;3829;50.798;4.358;2024-03-23T14:48:42;11.90;99.90
7576;DHT22;3829;50.798;4.358;2024-03-23T14:51:08;12.20;99.90
7576;DHT22;3829;50.798;4.358;2024-03-23T14:53:35;12.60;99.90
7576;DHT22;3829;50.798;4.358;2024-03-23T14:56:01;13.30;99.90
7576;DHT22;3829;50.798;4.358;2024-03-23T14:58:28;12.80;99.90
7576;DHT22;3829;50.798;4.358;2024-03-23T15:01:00;12.60;99.90
7576;DHT22;3829;50.798;4.358;2024-03-23T15:03:26;12.90;99.90
7576;DHT22;3829;50.798;4.358;2024-03-23T15:05:53;13.00;99.90
7576;DHT22;3829;50.798;4.358;2024-03-23T15:08:19;13.30;99.90
7576;DHT22;3829;50.798;4.358;2024-03-23T15:10:44;13.40;99.90
7576;DHT22;3829;50.798;4.358;2024-03-23T15:13:10;13.10;99.90
7576;DHT22;3829;50.798;4.358;2024-03-23T15:15:40;12.50;99.90
7576;DHT22;3829;50.798;4.358;2024-03-23T15:18:07;12.60;99.90
7576;DHT22;3829;50.798;4.358;2024-03-23T15:20:33;13.20;99.90
7576;DHT22;3829;50.798;4.358;2024-03-23T15:23:02;13.80;99.90
7576;DHT22;3829;50.798;4.358;2024-03-23T15:25:27;13.80;99.90
7576;DHT22;3829;50.798;4.358;2024-03-23T15:27:53;14.20;99.90
7576;DHT22;3829;50.798;4.358;2024-03-23T15:30:20;13.50;99.90
7576;DHT22;3829;50.798;4.358;2024-03-23T15:32:45;13.40;99.90
7576;DHT22;3829;50.798;4.358;2024-03-23T15:35:11;13.60;99.90
7576;DHT22;3829;50.798;4.358;2024-03-23T15:37:37;14.40;99.90
7576;DHT22;3829;50.798;4.358;2024-03-23T15:40:05;14.50;99.90
7576;DHT22;3829;50.798;4.358;2024-03-23T15:42:30;14.90;99.90
7576;DHT22;3829;50.798;4.358;2024-03-23T15:44:56;15.50;99.90
7576;DHT22;3829;50.798;4.358;2024-03-23T15:47:21;15.40;99.90
7576;DHT22;3829;50.798;4.358;2024-03-23T15:49:49;14.40;99.90
7576;DHT22;3829;50.798;4.358;2024-03-23T15:52:15;13.40;99.90
7576;DHT22;3829;50.798;4.358;2024-03-23T15:54:40;13.80;99.90
7576;DHT22;3829;50.798;4.358;2024-03-23T15:57:06;13.20;99.90
7576;DHT22;3829;50.798;4.358;2024-03-23T15:59:32;12.40;99.90
7576;DHT22;3829;50.798;4.358;2024-03-23T16:01:58;12.50;99.90
7576;DHT22;3829;50.798;4.358;2024-03-23T16:04:23;12.80;99.90
7576;DHT22;3829;50.798;4.358;2024-03-23T16:06:49;12.30;99.90
7576;DHT22;3829;50.798;4.358;2024-03-23T16:09:15;12.00;99.90
7576;DHT22;3829;50.798;4.358;2024-03-23T16:11:40;12.00;99.90
7576;DHT22;3829;50.798;4.358;2024-03-23T16:14:06;11.40;99.90
7576;DHT22;3829;50.798;4.358;2024-03-23T16:16:31;11.30;99.90
7576;DHT22;3829;50.798;4.358;2024-03-23T16:18:57;11.10;99.90
7576;DHT22;3829;50.798;4.358;2024-03-23T16:21:22;11.00;99.90
7576;DHT22;3829;50.798;4.358;2024-03-23T16:23:48;10.90;99.90
7576;DHT22;3829;50.798;4.358;2024-03-23T16:26:13;10.80;99.90
7576;DHT22;3829;50.798;4.358;2024-03-23T16:28:41;10.50;99.90
7576;DHT22;3829;50.798;4.358;2024-03-23T16:31:09;10.50;99.90
7576;DHT22;3829;50.798;4.358;2024-03-23T16:33:36;10.40;99.90
7576;DHT22;3829;50.798;4.358;2024-03-23T16:36:04;10.40;99.90
7576;DHT22;3829;50.798;4.358;2024-03-23T16:38:32;10.40;99.90
7576;DHT22;3829;50.798;4.358;2024-03-23T16:41:00;10.40;99.90
7576;DHT22;3829;50.798;4.358;2024-03-23T16:43:27;10.40;99.90
7576;DHT22;3829;50.798;4.358;2024-03-23T16:45:55;10.20;99.90
7576;DHT22;3829;50.798;4.358;2024-03-23T16:48:22;10.30;99.90
7576;DHT22;3829;50.798;4.358;2024-03-23T16:50:48;10.30;99.90
7576;DHT22;3829;50.798;4.358;2024-03-23T16:53:13;10.40;99.90
7576;DHT22;3829;50.798;4.358;2024-03-23T16:55:39;10.50;99.90
7576;DHT22;3829;50.798;4.358;2024-03-23T16:58:05;10.50;99.90
7576;DHT22;3829;50.798;4.358;2024-03-23T17:00:31;10.60;99.90
7576;DHT22;3829;50.798;4.358;2024-03-23T17:02:56;10.50;99.90
7576;DHT22;3829;50.798;4.358;2024-03-23T17:05:22;10.40;99.90